sensor_id;sensor_type;location;lat;lon;timestamp;pressure;altitude;pressure_sealevel;temperature;humidity
12913;BME280;6524;51.368;11.984;2023-02-22T00:03:48;100405.59;;;19.15;52.00
12913;BME280;6524;51.368;11.984;2023-02-22T00:08:49;100402.31;;;19.37;50.81
12913;BME280;6524;51.368;11.984;2023-02-22T00:13:49;100405.88;;;18.70;52.50
12913;BME280;6524;51.368;11.984;2023-02-22T00:18:50;100397.75;;;19.13;51.40
12913;BME280;6524;51.368;11.984;2023-02-22T00:23:51;100392.88;;;18.67;52.68
12913;BME280;6524;51.368;11.984;2023-02-22T00:28:53;100401.44;;;19.11;51.73
12913;BME280;6524;51.368;11.984;2023-02-22T00:33:54;100394.19;;;18.75;52.70
12913;BME280;6524;51.368;11.984;2023-02-22T00:38:54;100384.72;;;18.31;54.35
12913;BME280;6524;51.368;11.984;2023-02-22T00:43:54;100386.84;;;18.38;53.85
12913;BME280;6524;51.368;11.984;2023-02-22T00:48:55;100386.94;;;18.10;54.67
12913;BME280;6524;51.368;11.984;2023-02-22T00:53:55;100381.81;;;18.48;53.94
12913;BME280;6524;51.368;11.984;2023-02-22T00:58:56;100377.94;;;18.26;54.60
12913;BME280;6524;51.368;11.984;2023-02-22T05:00:40;100273.53;;;15.76;62.52
12913;BME280;6524;51.368;11.984;2023-02-22T05:05:40;100277.09;;;15.75;62.55
12913;BME280;6524;51.368;11.984;2023-02-22T05:10:41;100269.72;;;16.28;60.85
12913;BME280;6524;51.368;11.984;2023-02-22T05:15:44;100271.50;;;15.81;62.20
12913;BME280;6524;51.368;11.984;2023-02-22T05:20:48;100267.06;;;15.66;62.28
12913;BME280;6524;51.368;11.984;2023-02-22T05:25:58;100260.94;;;16.13;60.96
12913;BME280;6524;51.368;11.984;2023-02-22T05:30:59;100266.69;;;15.73;62.30
12913;BME280;6524;51.368;11.984;2023-02-22T05:35:59;100256.88;;;15.60;63.33
12913;BME280;6524;51.368;11.984;2023-02-22T05:41:00;100259.53;;;15.91;62.47
12913;BME280;6524;51.368;11.984;2023-02-22T05:46:00;100257.56;;;16.11;61.74
12913;BME280;6524;51.368;11.984;2023-02-22T05:51:01;100261.16;;;16.24;61.36
12913;BME280;6524;51.368;11.984;2023-02-22T05:56:01;100261.00;;;16.27;61.51
12913;BME280;6524;51.368;11.984;2023-02-22T06:01:02;100255.38;;;16.33;61.54
12913;BME280;6524;51.368;11.984;2023-02-22T06:06:02;100255.28;;;16.35;61.12
12913;BME280;6524;51.368;11.984;2023-02-22T06:11:03;100259.38;;;16.25;61.57
12913;BME280;6524;51.368;11.984;2023-02-22T06:16:04;100270.88;;;16.38;61.19
12913;BME280;6524;51.368;11.984;2023-02-22T06:21:07;100267.91;;;15.98;62.00
12913;BME280;6524;51.368;11.984;2023-02-22T06:26:07;100268.81;;;15.83;62.87
12913;BME280;6524;51.368;11.984;2023-02-22T06:31:07;100273.78;;;15.87;61.97
12913;BME280;6524;51.368;11.984;2023-02-22T06:36:08;100267.75;;;15.85;62.56
12913;BME280;6524;51.368;11.984;2023-02-22T06:41:08;100272.09;;;15.86;62.76
12913;BME280;6524;51.368;11.984;2023-02-22T06:46:10;100277.81;;;16.25;60.97
12913;BME280;6524;51.368;11.984;2023-02-22T06:51:10;100285.69;;;16.25;60.76
12913;BME280;6524;51.368;11.984;2023-02-22T06:56:11;100285.19;;;16.18;61.05
12913;BME280;6524;51.368;11.984;2023-02-22T07:01:11;100290.91;;;16.40;60.75
12913;BME280;6524;51.368;11.984;2023-02-22T07:06:11;100280.50;;;16.23;61.49
12913;BME280;6524;51.368;11.984;2023-02-22T07:11:12;100282.78;;;16.29;60.88
12913;BME280;6524;51.368;11.984;2023-02-22T07:16:13;100282.38;;;16.51;60.11
12913;BME280;6524;51.368;11.984;2023-02-22T07:21:18;100285.38;;;16.75;59.74
12913;BME280;6524;51.368;11.984;2023-02-22T07:26:19;100294.91;;;16.62;59.62
12913;BME280;6524;51.368;11.984;2023-02-22T07:31:19;100283.09;;;16.69;59.67
12913;BME280;6524;51.368;11.984;2023-02-22T07:36:20;100284.41;;;16.62;60.30
12913;BME280;6524;51.368;11.984;2023-02-22T07:41:20;100286.66;;;16.68;60.10
12913;BME280;6524;51.368;11.984;2023-02-22T07:46:21;100283.53;;;16.77;59.37
12913;BME280;6524;51.368;11.984;2023-02-22T07:51:22;100287.78;;;17.08;58.64
12913;BME280;6524;51.368;11.984;2023-02-22T07:56:22;100286.16;;;17.20;58.18
12913;BME280;6524;51.368;11.984;2023-02-22T08:01:23;100285.13;;;17.23;58.65
12913;BME280;6524;51.368;11.984;2023-02-22T08:06:23;100279.66;;;16.97;59.48
12913;BME280;6524;51.368;11.984;2023-02-22T08:11:25;100272.63;;;17.12;59.16
12913;BME280;6524;51.368;11.984;2023-02-22T08:16:26;100273.81;;;17.35;58.95
12913;BME280;6524;51.368;11.984;2023-02-22T08:21:26;100279.34;;;17.59;57.38
12913;BME280;6524;51.368;11.984;2023-02-22T08:26:26;100287.19;;;17.46;58.12
12913;BME280;6524;51.368;11.984;2023-02-22T08:31:27;100280.06;;;17.90;57.11
12913;BME280;6524;51.368;11.984;2023-02-22T08:36:27;100283.88;;;18.25;55.92
12913;BME280;6524;51.368;11.984;2023-02-22T08:41:28;100284.22;;;17.79;57.59
12913;BME280;6524;51.368;11.984;2023-02-22T08:46:31;100285.03;;;18.21;56.20
12913;BME280;6524;51.368;11.984;2023-02-22T08:51:35;100280.47;;;17.84;57.22
12913;BME280;6524;51.368;11.984;2023-02-22T08:56:35;100278.53;;;18.00;57.08
12913;BME280;6524;51.368;11.984;2023-02-22T09:01:36;100277.56;;;17.45;58.58
12913;BME280;6524;51.368;11.984;2023-02-22T09:06:39;100281.41;;;18.10;57.04
12913;BME280;6524;51.368;11.984;2023-02-22T09:11:40;100283.72;;;18.14;56.93
12913;BME280;6524;51.368;11.984;2023-02-22T09:16:42;100280.75;;;17.65;58.22
12913;BME280;6524;51.368;11.984;2023-02-22T09:21:43;100284.75;;;18.39;56.37
12913;BME280;6524;51.368;11.984;2023-02-22T09:26:46;100279.75;;;18.21;56.62
12913;BME280;6524;51.368;11.984;2023-02-22T09:31:46;100276.63;;;18.02;56.75
12913;BME280;6524;51.368;11.984;2023-02-22T09:36:48;100268.06;;;17.57;57.86
12913;BME280;6524;51.368;11.984;2023-02-22T09:47:34;100270.94;;;18.61;54.78
12913;BME280;6524;51.368;11.984;2023-02-22T09:52:54;100257.41;;;19.42;52.77
12913;BME280;6524;51.368;11.984;2023-02-22T09:57:59;100254.94;;;19.88;50.86
12913;BME280;6524;51.368;11.984;2023-02-22T10:08:13;100245.75;;;21.21;47.63
12913;BME280;6524;51.368;11.984;2023-02-22T10:13:42;100240.81;;;22.89;43.95
12913;BME280;6524;51.368;11.984;2023-02-22T10:24:35;100225.00;;;21.60;46.05
12913;BME280;6524;51.368;11.984;2023-02-22T10:29:49;100226.09;;;21.57;45.54
12913;BME280;6524;51.368;11.984;2023-02-22T10:34:53;100224.06;;;21.16;46.00
12913;BME280;6524;51.368;11.984;2023-02-22T10:40:02;100215.41;;;21.80;44.72
12913;BME280;6524;51.368;11.984;2023-02-22T10:45:21;100217.56;;;21.20;44.84
12913;BME280;6524;51.368;11.984;2023-02-22T10:50:23;100213.91;;;21.43;43.86
12913;BME280;6524;51.368;11.984;2023-02-22T10:55:24;100208.84;;;21.52;44.36
12913;BME280;6524;51.368;11.984;2023-02-22T11:00:41;100204.59;;;21.92;44.01
12913;BME280;6524;51.368;11.984;2023-02-22T11:05:42;100205.72;;;22.22;43.29
12913;BME280;6524;51.368;11.984;2023-02-22T11:10:43;100200.09;;;22.04;43.91
12913;BME280;6524;51.368;11.984;2023-02-22T11:15:43;100200.16;;;22.25;42.82
12913;BME280;6524;51.368;11.984;2023-02-22T11:20:44;100195.41;;;21.97;43.97
12913;BME280;6524;51.368;11.984;2023-02-22T11:25:45;100198.06;;;22.80;42.31
12913;BME280;6524;51.368;11.984;2023-02-22T11:30:49;100178.22;;;23.25;40.67
12913;BME280;6524;51.368;11.984;2023-02-22T11:35:55;100186.09;;;24.62;38.47
12913;BME280;6524;51.368;11.984;2023-02-22T11:51:19;100150.88;;;23.83;39.38
12913;BME280;6524;51.368;11.984;2023-02-22T11:56:33;100143.84;;;24.11;39.78
12913;BME280;6524;51.368;11.984;2023-02-22T12:01:37;100142.47;;;24.54;39.01
12913;BME280;6524;51.368;11.984;2023-02-22T12:28:25;100128.13;;;27.04;33.60
12913;BME280;6524;51.368;11.984;2023-02-22T12:33:37;100129.50;;;27.08;33.34
12913;BME280;6524;51.368;11.984;2023-02-22T12:38:42;100131.28;;;26.04;34.76
12913;BME280;6524;51.368;11.984;2023-02-22T12:43:51;100139.84;;;25.90;35.46
12913;BME280;6524;51.368;11.984;2023-02-22T12:54:12;100120.91;;;26.01;35.78
12913;BME280;6524;51.368;11.984;2023-02-22T13:04:18;100108.59;;;25.82;36.23
12913;BME280;6524;51.368;11.984;2023-02-22T13:09:41;100117.31;;;25.57;36.99
12913;BME280;6524;51.368;11.984;2023-02-22T13:15:03;100111.44;;;25.53;37.10
12913;BME280;6524;51.368;11.984;2023-02-22T13:20:41;100110.84;;;25.24;36.80
12913;BME280;6524;51.368;11.984;2023-02-22T13:41:29;100089.66;;;24.30;38.12
12913;BME280;6524;51.368;11.984;2023-02-22T13:52:10;100081.03;;;24.08;39.11
12913;BME280;6524;51.368;11.984;2023-02-22T14:02:55;100072.66;;;23.64;39.77
12913;BME280;6524;51.368;11.984;2023-02-22T14:07:53;100071.66;;;23.65;39.74
12913;BME280;6524;51.368;11.984;2023-02-22T14:13:03;100061.19;;;24.30;39.19
12913;BME280;6524;51.368;11.984;2023-02-22T14:18:15;100056.44;;;23.38;40.48
12913;BME280;6524;51.368;11.984;2023-02-22T14:23:32;100054.03;;;22.56;41.44
12913;BME280;6524;51.368;11.984;2023-02-22T14:34:20;100048.03;;;23.14;40.87
12913;BME280;6524;51.368;11.984;2023-02-22T14:39:30;100051.69;;;22.22;42.62
12913;BME280;6524;51.368;11.984;2023-02-22T14:44:37;100045.38;;;22.54;42.07
12913;BME280;6524;51.368;11.984;2023-02-22T14:49:44;100037.56;;;22.72;41.74
12913;BME280;6524;51.368;11.984;2023-02-22T15:05:55;100029.50;;;21.81;43.42
12913;BME280;6524;51.368;11.984;2023-02-22T15:10:59;100023.78;;;21.86;43.58
12913;BME280;6524;51.368;11.984;2023-02-22T15:16:03;100022.94;;;21.85;43.60
12913;BME280;6524;51.368;11.984;2023-02-22T15:21:12;100022.38;;;21.61;43.81
12913;BME280;6524;51.368;11.984;2023-02-22T15:26:39;100022.75;;;21.35;44.62
12913;BME280;6524;51.368;11.984;2023-02-22T15:31:41;100023.22;;;21.29;44.81
12913;BME280;6524;51.368;11.984;2023-02-22T15:36:53;100015.69;;;21.45;44.71
12913;BME280;6524;51.368;11.984;2023-02-22T15:42:11;100016.59;;;21.56;44.56
12913;BME280;6524;51.368;11.984;2023-02-22T15:47:34;100008.25;;;20.64;46.61
12913;BME280;6524;51.368;11.984;2023-02-22T15:52:51;100012.22;;;20.47;46.86
12913;BME280;6524;51.368;11.984;2023-02-22T16:03:37;100005.16;;;21.23;45.90
12913;BME280;6524;51.368;11.984;2023-02-22T16:08:49;100017.03;;;21.08;46.29
12913;BME280;6524;51.368;11.984;2023-02-22T16:13:52;100010.91;;;21.07;46.40
12913;BME280;6524;51.368;11.984;2023-02-22T16:19:34;100012.06;;;20.82;46.52
12913;BME280;6524;51.368;11.984;2023-02-22T16:24:39;100015.25;;;20.20;48.13
12913;BME280;6524;51.368;11.984;2023-02-22T16:29:40;100017.06;;;20.53;47.91
12913;BME280;6524;51.368;11.984;2023-02-22T16:34:41;100022.72;;;20.60;47.51
12913;BME280;6524;51.368;11.984;2023-02-22T16:39:41;100015.25;;;20.20;49.01
12913;BME280;6524;51.368;11.984;2023-02-22T16:44:44;100011.53;;;20.00;49.03
12913;BME280;6524;51.368;11.984;2023-02-22T16:49:48;100011.88;;;19.95;49.71
12913;BME280;6524;51.368;11.984;2023-02-22T16:54:55;100011.94;;;19.25;50.76
12913;BME280;6524;51.368;11.984;2023-02-22T17:00:01;100006.34;;;20.21;48.42
12913;BME280;6524;51.368;11.984;2023-02-22T17:05:01;100009.25;;;20.06;48.75
12913;BME280;6524;51.368;11.984;2023-02-22T17:10:02;100013.50;;;19.74;48.89
12913;BME280;6524;51.368;11.984;2023-02-22T17:15:08;100005.50;;;19.40;50.14
12913;BME280;6524;51.368;11.984;2023-02-22T17:20:11;100007.28;;;19.39;50.18
12913;BME280;6524;51.368;11.984;2023-02-22T17:25:21;100008.69;;;18.97;51.10
12913;BME280;6524;51.368;11.984;2023-02-22T17:30:25;100000.91;;;19.31;49.97
12913;BME280;6524;51.368;11.984;2023-02-22T17:35:30;99999.69;;;19.00;50.72
12913;BME280;6524;51.368;11.984;2023-02-22T17:40:36;100002.41;;;19.22;49.94
12913;BME280;6524;51.368;11.984;2023-02-22T17:45:40;99997.91;;;19.11;50.25
12913;BME280;6524;51.368;11.984;2023-02-22T17:50:43;100000.44;;;19.48;49.61
12913;BME280;6524;51.368;11.984;2023-02-22T17:55:50;100000.72;;;19.56;49.42
12913;BME280;6524;51.368;11.984;2023-02-22T18:00:50;99999.16;;;18.34;52.28
12913;BME280;6524;51.368;11.984;2023-02-22T18:05:55;99987.34;;;19.11;50.39
12913;BME280;6524;51.368;11.984;2023-02-22T18:10:56;99985.56;;;18.88;50.62
12913;BME280;6524;51.368;11.984;2023-02-22T18:15:57;99981.81;;;19.03;50.48
12913;BME280;6524;51.368;11.984;2023-02-22T18:21:04;99969.59;;;19.13;50.09
12913;BME280;6524;51.368;11.984;2023-02-22T18:26:05;99974.84;;;19.02;49.89
12913;BME280;6524;51.368;11.984;2023-02-22T18:31:11;99972.88;;;18.93;50.53
12913;BME280;6524;51.368;11.984;2023-02-22T18:36:18;99980.63;;;18.83;50.62
12913;BME280;6524;51.368;11.984;2023-02-22T18:41:33;99974.13;;;18.63;51.24
12913;BME280;6524;51.368;11.984;2023-02-22T18:46:44;99965.75;;;19.17;50.05
12913;BME280;6524;51.368;11.984;2023-02-22T18:51:44;99956.59;;;19.10;50.20
12913;BME280;6524;51.368;11.984;2023-02-22T18:56:45;99953.34;;;18.83;50.44
12913;BME280;6524;51.368;11.984;2023-02-22T19:01:58;99948.56;;;19.12;50.11
12913;BME280;6524;51.368;11.984;2023-02-22T19:07:00;99941.78;;;18.72;51.32
12913;BME280;6524;51.368;11.984;2023-02-22T19:12:01;99939.22;;;18.84;50.94
12913;BME280;6524;51.368;11.984;2023-02-22T19:17:02;99933.09;;;18.70;51.01
12913;BME280;6524;51.368;11.984;2023-02-22T19:22:06;99938.28;;;18.48;51.95
12913;BME280;6524;51.368;11.984;2023-02-22T19:27:06;99933.63;;;18.15;52.34
12913;BME280;6524;51.368;11.984;2023-02-22T19:32:08;99932.59;;;18.41;52.27
12913;BME280;6524;51.368;11.984;2023-02-22T19:37:10;99939.00;;;18.50;51.65
12913;BME280;6524;51.368;11.984;2023-02-22T19:42:11;99939.75;;;18.52;51.58
12913;BME280;6524;51.368;11.984;2023-02-22T19:47:12;99933.81;;;18.24;52.55
12913;BME280;6524;51.368;11.984;2023-02-22T19:52:12;99936.31;;;18.63;51.50
12913;BME280;6524;51.368;11.984;2023-02-22T19:57:12;99938.22;;;18.37;52.15
12913;BME280;6524;51.368;11.984;2023-02-22T20:02:13;99927.25;;;18.54;51.53
12913;BME280;6524;51.368;11.984;2023-02-22T20:07:14;99940.03;;;18.23;52.33
12913;BME280;6524;51.368;11.984;2023-02-22T20:12:14;99937.44;;;18.47;51.79
12913;BME280;6524;51.368;11.984;2023-02-22T20:17:14;99933.72;;;18.50;52.08
12913;BME280;6524;51.368;11.984;2023-02-22T20:22:15;99943.50;;;18.61;51.66
12913;BME280;6524;51.368;11.984;2023-02-22T20:27:15;99946.72;;;18.53;51.43
12913;BME280;6524;51.368;11.984;2023-02-22T20:32:15;99947.91;;;18.73;51.12
12913;BME280;6524;51.368;11.984;2023-02-22T20:37:16;99936.84;;;18.31;52.01
12913;BME280;6524;51.368;11.984;2023-02-22T20:42:17;99932.53;;;18.54;51.08
12913;BME280;6524;51.368;11.984;2023-02-22T20:47:17;99934.91;;;18.46;51.83
12913;BME280;6524;51.368;11.984;2023-02-22T20:52:18;99931.19;;;18.24;52.38
12913;BME280;6524;51.368;11.984;2023-02-22T20:57:18;99928.38;;;18.76;51.38
12913;BME280;6524;51.368;11.984;2023-02-22T21:02:18;99931.06;;;18.26;51.56
12913;BME280;6524;51.368;11.984;2023-02-22T21:07:19;99931.03;;;18.02;52.89
12913;BME280;6524;51.368;11.984;2023-02-22T21:12:21;99943.78;;;18.45;51.82
12913;BME280;6524;51.368;11.984;2023-02-22T21:17:22;99934.84;;;17.85;53.29
12913;BME280;6524;51.368;11.984;2023-02-22T21:22:28;99929.03;;;18.30;52.26
12913;BME280;6524;51.368;11.984;2023-02-22T21:27:28;99927.78;;;15.26;61.36
12913;BME280;6524;51.368;11.984;2023-02-22T21:32:28;99927.94;;;15.09;62.48
12913;BME280;6524;51.368;11.984;2023-02-22T21:37:29;99924.06;;;15.30;61.80
12913;BME280;6524;51.368;11.984;2023-02-22T21:42:29;99938.56;;;14.91;63.45
12913;BME280;6524;51.368;11.984;2023-02-22T21:47:29;99928.06;;;14.91;63.14
12913;BME280;6524;51.368;11.984;2023-02-22T21:52:30;99924.72;;;15.03;62.66
12913;BME280;6524;51.368;11.984;2023-02-22T21:57:31;99929.34;;;14.84;63.08
12913;BME280;6524;51.368;11.984;2023-02-22T22:02:31;99932.34;;;15.08;63.13
12913;BME280;6524;51.368;11.984;2023-02-22T22:07:31;99931.53;;;15.22;62.26
12913;BME280;6524;51.368;11.984;2023-02-22T22:12:32;99923.47;;;15.11;62.84
12913;BME280;6524;51.368;11.984;2023-02-22T22:17:32;99932.78;;;15.00;63.33
12913;BME280;6524;51.368;11.984;2023-02-22T22:22:32;99928.91;;;14.62;64.13
12913;BME280;6524;51.368;11.984;2023-02-22T22:27:33;99925.84;;;14.99;63.09
12913;BME280;6524;51.368;11.984;2023-02-22T22:32:33;99927.53;;;14.70;64.32
12913;BME280;6524;51.368;11.984;2023-02-22T22:37:34;99926.75;;;14.68;64.29
12913;BME280;6524;51.368;11.984;2023-02-22T22:42:34;99925.66;;;14.72;64.16
12913;BME280;6524;51.368;11.984;2023-02-22T22:47:34;99923.91;;;14.73;63.76
12913;BME280;6524;51.368;11.984;2023-02-22T22:52:36;99926.78;;;14.52;64.84
12913;BME280;6524;51.368;11.984;2023-02-22T22:57:40;99926.09;;;14.65;64.41
12913;BME280;6524;51.368;11.984;2023-02-22T23:02:41;99919.56;;;14.08;66.36
12913;BME280;6524;51.368;11.984;2023-02-22T23:07:42;99925.59;;;14.26;65.94
12913;BME280;6524;51.368;11.984;2023-02-22T23:12:42;99922.19;;;14.08;66.57
12913;BME280;6524;51.368;11.984;2023-02-22T23:17:42;99915.09;;;14.10;66.13
12913;BME280;6524;51.368;11.984;2023-02-22T23:22:44;99922.63;;;14.01;67.09
12913;BME280;6524;51.368;11.984;2023-02-22T23:27:47;99925.09;;;14.20;65.94
12913;BME280;6524;51.368;11.984;2023-02-22T23:32:47;99925.84;;;14.22;66.15
12913;BME280;6524;51.368;11.984;2023-02-22T23:37:49;99914.38;;;13.91;67.21
12913;BME280;6524;51.368;11.984;2023-02-22T23:42:52;99913.03;;;14.00;66.89
12913;BME280;6524;51.368;11.984;2023-02-22T23:47:56;99916.50;;;14.00;66.45
12913;BME280;6524;51.368;11.984;2023-02-22T23:52:59;99915.00;;;14.12;66.38
12913;BME280;6524;51.368;11.984;2023-02-22T23:58:02;99913.38;;;14.09;66.40
